Time;durP1;ratioP1;P1;durP2;ratioP2;P2;SDS_P1;SDS_P2;PMS_P1;PMS_P2;Temp;Humidity;BMP_temperature;BMP_pressure;BME280_temperature;BME280_humidity;BME280_pressure;Samples;Min_cycle;Max_cycle;Signal;HPM_P1;HPM_P2
2022/06/24 00:02:09;;;;;;;3.60;2.92;;;;;;;29.42;nan;100610.94;5028064;28;20189;-73
2022/06/24 00:04:36;;;;;;;4.20;2.83;;;;;;;29.42;nan;100603.75;5030009;28;20025;-73
2022/06/24 00:07:13;;;;;;;4.03;2.80;;;;;;;29.39;nan;100612.03;5029371;28;20034;-73
2022/06/24 00:09:40;;;;;;;3.20;2.90;;;;;;;29.35;nan;100598.88;5029711;28;20035;-73
2022/06/24 00:12:08;;;;;;;3.53;2.80;;;;;;;29.32;nan;100602.63;5029912;28;20064;-72
2022/06/24 00:14:38;;;;;;;3.47;2.90;;;;;;;29.34;nan;100589.09;5027599;28;20391;-73
2022/06/24 00:17:07;;;;;;;3.45;2.83;;;;;;;29.30;nan;100585.75;5029491;28;20148;-73
2022/06/24 00:19:35;;;;;;;3.35;2.75;;;;;;;29.32;nan;100583.84;5029279;28;20033;-73
2022/06/24 00:22:03;;;;;;;3.67;2.70;;;;;;;29.30;nan;100582.22;5028771;28;20033;-73
2022/06/24 00:24:30;;;;;;;4.18;2.85;;;;;;;29.27;nan;100572.56;5029510;28;20685;-73
2022/06/24 00:26:57;;;;;;;3.08;2.65;;;;;;;29.21;nan;100581.03;5029493;28;20163;-73
2022/06/24 00:29:29;;;;;;;3.35;2.83;;;;;;;29.20;nan;100570.38;5029318;28;20048;-73
2022/06/24 00:32:08;;;;;;;3.17;2.60;;;;;;;29.18;nan;100567.81;5029346;28;20476;-73
2022/06/24 00:34:36;;;;;;;3.90;2.80;;;;;;;29.17;nan;100565.22;5027769;28;20037;-73
2022/06/24 00:37:27;;;;;;;3.70;2.80;;;;;;;28.81;nan;100560.53;5028866;28;20025;-73
2022/06/24 00:39:55;;;;;;;3.10;2.75;;;;;;;28.68;nan;100552.41;5026096;28;20396;-72
2022/06/24 00:42:22;;;;;;;3.50;2.75;;;;;;;28.65;nan;100553.50;5027802;28;20038;-73
2022/06/24 00:45:15;;;;;;;3.55;2.90;;;;;;;28.61;nan;100554.63;5026077;28;20124;-73
2022/06/24 00:47:41;;;;;;;3.88;2.80;;;;;;;28.63;nan;100535.75;4991796;28;20033;-73
2022/06/24 00:50:18;;;;;;;3.90;2.90;;;;;;;28.61;nan;100535.00;5028764;28;20044;-73
2022/06/24 00:52:44;;;;;;;4.30;2.70;;;;;;;28.61;nan;100535.00;5028557;28;20026;-72
2022/06/24 00:55:10;;;;;;;3.30;2.70;;;;;;;28.59;nan;100529.75;5029006;28;20724;-72
2022/06/24 00:57:36;;;;;;;4.03;2.80;;;;;;;28.62;nan;100531.34;5028751;28;20044;-73
2022/06/24 01:00:05;;;;;;;3.08;2.67;;;;;;;28.60;nan;100519.88;5027583;28;20094;-73
2022/06/24 01:02:32;;;;;;;3.45;2.78;;;;;;;28.54;nan;100525.66;5025350;28;20073;-73
2022/06/24 01:05:05;;;;;;;3.33;2.78;;;;;;;28.55;nan;100519.31;5028620;28;20044;-73
2022/06/24 01:07:31;;;;;;;3.22;2.80;;;;;;;28.54;nan;100521.16;5028860;28;20068;-73
2022/06/24 01:09:57;;;;;;;3.30;2.97;;;;;;;28.51;nan;100524.03;5028792;28;20112;-73
2022/06/24 01:12:23;;;;;;;3.60;2.80;;;;;;;28.48;nan;100516.19;5028360;28;20033;-73
2022/06/24 01:14:48;;;;;;;3.25;2.67;;;;;;;28.48;nan;100513.50;5028563;28;20033;-73
2022/06/24 01:17:14;;;;;;;3.60;2.90;;;;;;;28.46;nan;100512.75;5028796;28;20037;-73
2022/06/24 01:19:39;;;;;;;3.40;2.65;;;;;;;28.47;nan;100513.63;5028616;28;20399;-73
2022/06/24 01:22:04;;;;;;;3.85;2.67;;;;;;;28.43;nan;100499.53;5027158;28;20087;-73
2022/06/24 01:24:30;;;;;;;4.88;2.80;;;;;;;28.47;nan;100500.22;5028595;28;20028;-72
2022/06/24 01:26:57;;;;;;;3.30;2.60;;;;;;;28.46;nan;100495.81;5028516;28;20065;-73
2022/06/24 01:29:24;;;;;;;3.63;2.80;;;;;;;28.46;nan;100485.06;5028556;28;20033;-73
2022/06/24 01:31:52;;;;;;;4.50;3.00;;;;;;;28.44;nan;100476.25;5026746;28;20022;-73
2022/06/24 01:34:19;;;;;;;3.60;2.70;;;;;;;28.45;nan;100484.22;5027330;28;20049;-73
2022/06/24 01:36:45;;;;;;;3.40;2.80;;;;;;;28.42;nan;100476.34;5028544;28;20037;-73
2022/06/24 01:39:10;;;;;;;3.67;2.85;;;;;;;28.41;nan;100481.84;5028472;28;20041;-73
2022/06/24 01:41:36;;;;;;;3.03;2.60;;;;;;;28.39;nan;100486.44;5028594;28;20029;-73
2022/06/24 01:44:01;;;;;;;3.25;2.80;;;;;;;28.36;nan;100476.78;5028569;28;20053;-73
2022/06/24 01:46:28;;;;;;;2.92;2.55;;;;;;;28.38;nan;100477.53;5028044;28;20041;-73
2022/06/24 01:48:53;;;;;;;2.95;2.65;;;;;;;28.39;nan;100470.34;5030037;28;20041;-73
2022/06/24 01:51:21;;;;;;;3.25;2.67;;;;;;;28.37;nan;100467.78;5032269;28;20088;-73
2022/06/24 01:53:46;;;;;;;3.00;2.70;;;;;;;28.33;nan;100462.72;5031955;28;20029;-73
2022/06/24 01:56:12;;;;;;;3.78;2.72;;;;;;;28.36;nan;100466.03;5030787;28;20038;-73
2022/06/24 01:58:37;;;;;;;3.35;2.65;;;;;;;28.33;nan;100465.41;5031940;28;20383;-73
2022/06/24 02:01:03;;;;;;;3.00;2.70;;;;;;;28.30;nan;100465.63;5031862;28;20626;-73
2022/06/24 02:03:31;;;;;;;2.97;2.67;;;;;;;28.28;nan;100455.00;5031798;28;20112;-73
2022/06/24 02:06:03;;;;;;;2.78;2.42;;;;;;;28.28;nan;100446.09;5032111;28;20025;-72
2022/06/24 02:08:29;;;;;;;2.95;2.65;;;;;;;28.27;nan;100447.91;5032146;28;20116;-73
2022/06/24 02:13:39;;;;;;;2.95;2.65;;;;;;;28.28;nan;100443.41;5031823;28;20105;-73
2022/06/24 02:16:06;;;;;;;3.10;2.58;;;;;;;28.28;nan;100436.22;5030787;28;20471;-73
2022/06/24 02:18:32;;;;;;;3.42;2.72;;;;;;;28.27;nan;100429.13;5031681;28;20017;-73
2022/06/24 02:20:59;;;;;;;3.55;2.67;;;;;;;28.28;nan;100430.00;5031413;28;20061;-73
2022/06/24 02:23:25;;;;;;;3.10;2.58;;;;;;;28.46;nan;100418.91;5031622;28;20033;-73
2022/06/24 02:25:51;;;;;;;3.83;2.63;;;;;;;28.75;nan;100422.28;5031648;28;20041;-73
2022/06/24 02:28:17;;;;;;;3.38;2.60;;;;;;;28.75;nan;100421.44;5030218;28;20056;-73
2022/06/24 02:30:44;;;;;;;3.20;2.90;;;;;;;28.75;nan;100424.97;5030118;28;20061;-73
2022/06/24 02:33:10;;;;;;;3.30;2.70;;;;;;;28.75;nan;100418.75;5031532;28;20031;-73
2022/06/24 02:35:37;;;;;;;2.78;2.47;;;;;;;28.75;nan;100418.75;5031082;28;20502;-72
2022/06/24 02:38:03;;;;;;;2.90;2.60;;;;;;;28.78;nan;100419.41;5031620;28;20033;-73
2022/06/24 02:40:47;;;;;;;3.33;2.70;;;;;;;28.78;nan;100415.88;5029995;28;20025;-73
2022/06/24 02:43:32;;;;;;;2.97;2.67;;;;;;;28.74;nan;100396.44;5030365;28;20026;-73
2022/06/24 02:46:03;;;;;;;3.42;2.80;;;;;;;28.76;nan;100396.31;5031323;28;20033;-73
2022/06/24 02:48:29;;;;;;;3.00;2.53;;;;;;;28.71;nan;100391.25;5030458;28;20502;-72
2022/06/24 02:50:58;;;;;;;3.10;2.60;;;;;;;28.71;nan;100393.94;5030943;28;20368;-73
2022/06/24 02:53:25;;;;;;;3.33;2.60;;;;;;;28.70;nan;100397.56;5029782;28;20041;-73
2022/06/24 02:55:56;;;;;;;2.90;2.60;;;;;;;28.75;nan;100394.59;5031183;28;20508;-73
2022/06/24 02:58:22;;;;;;;3.00;2.70;;;;;;;28.78;nan;100392.59;5030462;28;20029;-72
2022/06/24 03:00:48;;;;;;;2.92;2.63;;;;;;;28.71;nan;100401.13;5029451;28;20364;-73
2022/06/24 03:03:16;;;;;;;3.03;2.60;;;;;;;28.67;nan;100417.41;5030918;28;20026;-73
2022/06/24 03:05:42;;;;;;;3.67;2.50;;;;;;;28.65;nan;100430.09;5030034;28;20110;-72
2022/06/24 03:08:08;;;;;;;3.55;2.58;;;;;;;28.69;nan;100429.88;5030957;28;20341;-73
2022/06/24 03:10:34;;;;;;;2.92;2.40;;;;;;;28.73;nan;100420.66;5030802;28;20159;-73
2022/06/24 03:13:00;;;;;;;3.10;2.55;;;;;;;28.69;nan;100422.69;5030847;28;20462;-73
2022/06/24 03:15:25;;;;;;;3.10;2.60;;;;;;;28.69;nan;100425.38;5030290;28;20033;-73
2022/06/24 03:17:50;;;;;;;2.90;2.60;;;;;;;28.70;nan;100421.72;5030569;28;20025;-73
2022/06/24 03:20:16;;;;;;;2.75;2.50;;;;;;;28.62;nan;100418.69;5030299;28;20368;-73
2022/06/24 03:22:42;;;;;;;3.30;2.65;;;;;;;28.64;nan;100406.06;5030410;28;20056;-73
2022/06/24 03:25:08;;;;;;;3.05;2.60;;;;;;;28.62;nan;100421.38;5030112;28;20030;-73
2022/06/24 03:27:35;;;;;;;2.60;2.40;;;;;;;28.64;nan;100411.41;5028955;28;20483;-73
2022/06/24 03:30:00;;;;;;;3.63;2.65;;;;;;;28.60;nan;100413.47;5029034;28;20070;-73
2022/06/24 03:32:25;;;;;;;3.15;2.70;;;;;;;28.62;nan;100406.16;5030305;28;20025;-73
2022/06/24 03:34:51;;;;;;;2.80;2.58;;;;;;;28.62;nan;100410.66;5030245;28;20040;-73
2022/06/24 03:37:17;;;;;;;3.70;2.60;;;;;;;28.61;nan;100401.75;5029848;28;20037;-73
2022/06/24 03:39:42;;;;;;;3.10;2.80;;;;;;;28.61;nan;100395.50;5030053;28;20136;-72
2022/06/24 03:42:07;;;;;;;2.85;2.60;;;;;;;28.60;nan;100394.69;5029737;28;20039;-73
2022/06/24 03:44:33;;;;;;;3.58;2.42;;;;;;;28.57;nan;100394.03;5030304;28;20540;-73
2022/06/24 03:46:58;;;;;;;2.67;2.40;;;;;;;28.58;nan;100379.66;5030013;28;20033;-73
2022/06/24 03:49:24;;;;;;;3.00;2.70;;;;;;;28.58;nan;100379.66;5029437;28;20029;-73
2022/06/24 03:51:49;;;;;;;3.33;2.42;;;;;;;28.54;nan;100370.13;5030016;28;20466;-73
2022/06/24 03:54:15;;;;;;;2.75;2.50;;;;;;;28.52;nan;100362.16;5029645;28;20022;-73
2022/06/24 03:56:41;;;;;;;2.80;2.50;;;;;;;28.54;nan;100375.47;5029771;28;20040;-73
2022/06/24 03:59:07;;;;;;;3.30;2.50;;;;;;;28.55;nan;100386.06;5029430;28;20391;-73
2022/06/24 04:01:32;;;;;;;2.90;2.40;;;;;;;28.60;nan;100399.19;5029941;28;20501;-72
2022/06/24 04:03:57;;;;;;;3.08;2.60;;;;;;;28.56;nan;100390.47;5029493;28;20037;-73
2022/06/24 04:06:23;;;;;;;2.80;2.50;;;;;;;28.61;nan;100388.34;5029767;28;20581;-73
2022/06/24 04:08:48;;;;;;;3.55;2.47;;;;;;;28.57;nan;100394.88;5029960;28;20084;-73
2022/06/24 04:11:16;;;;;;;2.80;2.50;;;;;;;28.62;nan;100398.09;5024653;28;20053;-73
2022/06/24 04:13:41;;;;;;;3.20;2.65;;;;;;;28.63;nan;100385.56;5029524;28;20500;-73
2022/06/24 04:16:07;;;;;;;3.78;2.40;;;;;;;28.59;nan;100390.28;5029684;28;20185;-73
2022/06/24 04:18:33;;;;;;;3.60;2.30;;;;;;;28.62;nan;100387.38;5028132;28;20519;-73
2022/06/24 04:20:59;;;;;;;2.47;2.28;;;;;;;28.63;nan;100377.50;5029214;28;20037;-73
2022/06/24 04:23:25;;;;;;;2.80;2.50;;;;;;;28.61;nan;100374.91;5028020;28;20061;-73
2022/06/24 04:25:51;;;;;;;2.78;2.30;;;;;;;28.61;nan;100366.00;5029374;28;20423;-73
2022/06/24 04:28:16;;;;;;;2.70;2.50;;;;;;;28.57;nan;100385.97;5029447;28;20086;-73
2022/06/24 04:30:42;;;;;;;3.25;2.15;;;;;;;28.60;nan;100375.91;5028461;28;20163;-73
2022/06/24 04:33:08;;;;;;;3.10;2.42;;;;;;;28.57;nan;100394.88;5029301;28;20033;-73
2022/06/24 04:35:33;;;;;;;2.83;2.58;;;;;;;28.60;nan;100397.38;5028005;28;20072;-73
2022/06/24 04:37:59;;;;;;;2.80;2.50;;;;;;;28.61;nan;100403.56;5029013;28;20041;-73
2022/06/24 04:40:24;;;;;;;3.47;2.60;;;;;;;28.59;nan;100402.84;5028663;28;20097;-73
2022/06/24 04:42:50;;;;;;;2.65;2.42;;;;;;;28.60;nan;100400.06;5028815;28;20033;-74
2022/06/24 04:45:16;;;;;;;3.05;2.55;;;;;;;28.54;nan;100403.16;5029329;28;20399;-76
2022/06/24 04:47:41;;;;;;;2.78;2.30;;;;;;;28.63;nan;100396.28;5028991;28;20048;-73
2022/06/24 04:50:08;;;;;;;2.80;2.50;;;;;;;28.58;nan;100393.91;5029001;28;20021;-74
2022/06/24 04:52:33;;;;;;;2.63;2.40;;;;;;;28.55;nan;100395.94;5028464;28;20032;-72
2022/06/24 04:54:59;;;;;;;2.40;2.20;;;;;;;28.55;nan;100396.81;5028969;28;20391;-74
2022/06/24 04:57:25;;;;;;;3.15;2.30;;;;;;;28.57;nan;100413.66;5029114;28;20117;-73
2022/06/24 04:59:50;;;;;;;3.40;2.40;;;;;;;28.60;nan;100415.28;5029241;28;20545;-72
2022/06/24 05:02:16;;;;;;;2.35;2.15;;;;;;;28.63;nan;100398.97;5027757;28;20033;-74
2022/06/24 05:04:41;;;;;;;2.72;2.40;;;;;;;28.63;nan;100404.31;5028439;28;20022;-74
2022/06/24 05:07:07;;;;;;;2.50;2.30;;;;;;;28.66;nan;100380.00;5029079;28;20036;-72
2022/06/24 05:09:33;;;;;;;2.70;2.30;;;;;;;28.73;nan;100375.88;5029036;28;20017;-73
2022/06/24 05:11:58;;;;;;;2.90;2.60;;;;;;;28.73;nan;100370.53;5028874;28;20387;-73
2022/06/24 05:14:24;;;;;;;2.80;2.50;;;;;;;28.75;nan;100374.00;5029154;28;20044;-73
2022/06/24 05:16:50;;;;;;;2.75;2.40;;;;;;;28.79;nan;100377.34;5028132;28;20025;-75
2022/06/24 05:19:15;;;;;;;2.90;2.55;;;;;;;28.80;nan;100365.63;5028592;28;20039;-72
2022/06/24 05:21:40;;;;;;;2.78;2.45;;;;;;;28.80;nan;100363.81;5027333;28;20068;-73
2022/06/24 05:24:06;;;;;;;2.40;2.20;;;;;;;28.76;nan;100364.13;5031684;28;20483;-75
2022/06/24 05:26:32;;;;;;;2.85;2.40;;;;;;;28.73;nan;100359.78;5033250;28;20033;-74
2022/06/24 05:28:57;;;;;;;2.80;2.40;;;;;;;28.74;nan;100352.63;5032922;28;20391;-75
2022/06/24 05:31:23;;;;;;;2.55;2.35;;;;;;;28.73;nan;100348.22;5032168;28;20025;-74
2022/06/24 05:33:48;;;;;;;2.80;2.50;;;;;;;28.72;nan;100347.38;5032743;28;20030;-75
2022/06/24 05:36:14;;;;;;;2.78;2.40;;;;;;;28.72;nan;100346.50;5032553;28;20040;-75
2022/06/24 05:38:39;;;;;;;2.92;2.40;;;;;;;28.73;nan;100349.06;5031419;28;20053;-74
2022/06/24 05:41:04;;;;;;;2.85;2.40;;;;;;;28.70;nan;100362.72;5032967;28;20777;-73
2022/06/24 05:43:30;;;;;;;2.55;2.35;;;;;;;28.70;nan;100373.44;5032038;28;20503;-74
2022/06/24 05:45:55;;;;;;;2.92;2.60;;;;;;;28.67;nan;100387.91;5032262;28;20037;-74
2022/06/24 05:48:21;;;;;;;3.33;2.33;;;;;;;28.62;nan;100410.66;5032393;28;20091;-75
2022/06/24 05:50:47;;;;;;;2.80;2.50;;;;;;;28.60;nan;100428.69;5032331;28;20098;-74
2022/06/24 05:55:58;;;;;;;2.63;2.42;;;;;;;28.61;nan;100450.03;5029528;28;20040;-72
2022/06/24 05:58:25;;;;;;;3.20;2.38;;;;;;;28.62;nan;100461.63;5032143;28;20033;-73
2022/06/24 06:00:51;;;;;;;2.70;2.30;;;;;;;28.64;nan;100457.00;5030619;28;20073;-72
2022/06/24 06:03:17;;;;;;;2.47;2.28;;;;;;;28.61;nan;100457.22;5032612;28;20064;-73
2022/06/24 06:05:42;;;;;;;3.20;2.28;;;;;;;28.61;nan;100465.25;5031347;28;20053;-73
2022/06/24 06:08:07;;;;;;;4.05;2.40;;;;;;;28.65;nan;100459.59;5033069;28;20029;-74
2022/06/24 06:10:35;;;;;;;2.95;2.50;;;;;;;28.67;nan;100450.59;5031594;28;20094;-73
2022/06/24 06:13:00;;;;;;;4.13;2.50;;;;;;;28.65;nan;100442.66;5031322;28;20064;-72
2022/06/24 06:15:26;;;;;;;3.70;2.60;;;;;;;28.68;nan;100437.06;5032900;28;20108;-74
2022/06/24 06:17:51;;;;;;;2.60;2.17;;;;;;;28.69;nan;100436.09;5030965;28;20576;-72
2022/06/24 06:20:16;;;;;;;2.72;2.45;;;;;;;28.70;nan;100443.19;5031033;28;20533;-72
2022/06/24 06:22:42;;;;;;;2.60;2.20;;;;;;;28.69;nan;100435.22;5033095;28;20029;-73
2022/06/24 06:25:08;;;;;;;3.65;2.50;;;;;;;28.68;nan;100420.97;5031532;28;20104;-72
2022/06/24 06:27:36;;;;;;;3.28;2.17;;;;;;;28.72;nan;100435.03;5032047;28;20388;-73
2022/06/24 06:30:02;;;;;;;2.85;2.42;;;;;;;28.72;nan;100435.03;5031440;28;20067;-75
2022/06/24 06:32:28;;;;;;;3.33;2.30;;;;;;;28.71;nan;100446.72;5030805;28;20064;-74
2022/06/24 06:34:53;;;;;;;2.50;2.30;;;;;;;28.75;nan;100450.94;5031468;28;20037;-73
2022/06/24 06:37:18;;;;;;;3.25;2.30;;;;;;;28.71;nan;100463.69;5031705;28;20033;-74
2022/06/24 06:39:44;;;;;;;5.43;2.58;;;;;;;28.66;nan;100471.19;5031139;28;20061;-74
2022/06/24 06:42:09;;;;;;;4.43;2.30;;;;;;;28.67;nan;100480.94;5030565;28;20030;-74
2022/06/24 06:44:34;;;;;;;3.47;2.30;;;;;;;28.65;nan;100481.06;5013515;28;20033;-76
2022/06/24 06:47:00;;;;;;;3.00;2.40;;;;;;;28.67;nan;100483.63;5031373;28;20025;-75
2022/06/24 06:49:25;;;;;;;3.38;2.40;;;;;;;28.69;nan;100495.13;5030773;28;20033;-75
2022/06/24 06:51:50;;;;;;;4.10;2.40;;;;;;;28.71;nan;100500.38;5030819;28;20065;-75
2022/06/24 06:54:16;;;;;;;2.67;2.30;;;;;;;28.69;nan;100499.63;5031134;28;20091;-73
2022/06/24 06:56:41;;;;;;;4.53;2.30;;;;;;;28.72;nan;100492.25;5030772;28;20079;-73
2022/06/24 06:59:06;;;;;;;3.35;2.30;;;;;;;28.71;nan;100501.25;5031104;28;20593;-71
2022/06/24 07:01:32;;;;;;;2.47;2.20;;;;;;;28.73;nan;100495.78;5031268;28;20029;-73
2022/06/24 07:03:57;;;;;;;3.58;2.47;;;;;;;28.75;nan;100493.88;5031231;28;20067;-73
2022/06/24 07:06:24;;;;;;;3.03;2.25;;;;;;;28.74;nan;100489.47;5030831;28;20033;-73
2022/06/24 07:08:49;;;;;;;3.17;2.40;;;;;;;28.75;nan;100483.13;5031101;28;20026;-73
2022/06/24 07:11:14;;;;;;;4.10;2.60;;;;;;;28.67;nan;100476.44;5030539;28;20079;-68
2022/06/24 07:13:40;;;;;;;3.15;2.38;;;;;;;28.75;nan;100475.09;5030453;28;20480;-73
2022/06/24 07:16:11;;;;;;;3.55;2.10;;;;;;;28.79;nan;100474.75;5030495;28;20038;-74
2022/06/24 07:18:36;;;;;;;3.13;2.22;;;;;;;28.81;nan;100466.63;5029828;28;20034;-74
2022/06/24 07:21:02;;;;;;;2.55;2.17;;;;;;;28.82;nan;100465.66;5029375;28;20028;-74
2022/06/24 07:23:28;;;;;;;2.30;2.10;;;;;;;28.82;nan;100458.47;5030287;28;20586;-75
2022/06/24 07:25:57;;;;;;;2.80;2.10;;;;;;;28.82;nan;100461.16;5029373;28;20025;-74
2022/06/24 07:28:24;;;;;;;4.30;2.38;;;;;;;28.83;nan;100472.75;5030543;28;20047;-75
2022/06/24 07:30:50;;;;;;;3.15;2.30;;;;;;;28.81;nan;100464.78;5030461;28;20112;-76
2022/06/24 07:33:15;;;;;;;6.15;2.40;;;;;;;28.79;nan;100461.34;5022910;28;20343;-72
2022/06/24 07:35:40;;;;;;;7.28;2.30;;;;;;;28.81;nan;100458.56;5021569;28;20049;-68
2022/06/24 07:38:06;;;;;;;3.28;2.20;;;;;;;28.81;nan;100455.88;5033324;28;20036;-73
2022/06/24 07:40:31;;;;;;;5.28;2.08;;;;;;;28.83;nan;100462.88;5035486;28;20499;-73
2022/06/24 07:42:56;;;;;;;6.03;2.28;;;;;;;28.84;nan;100450.31;5036417;28;20056;-73
2022/06/24 07:45:22;;;;;;;5.15;2.20;;;;;;;28.86;nan;100465.34;5034826;28;20029;-74
2022/06/24 07:47:47;;;;;;;3.38;2.20;;;;;;;28.88;nan;100468.78;4999404;28;20040;-69
2022/06/24 07:50:13;;;;;;;6.15;2.63;;;;;;;28.91;nan;100465.03;5025042;28;20025;-73
2022/06/24 07:52:38;;;;;;;7.55;2.55;;;;;;;28.94;nan;100468.34;5025530;28;20017;-74
2022/06/24 07:57:48;;;;;;;8.00;2.42;;;;;;;28.98;nan;100440.34;5025943;28;20052;-78
2022/06/24 08:00:14;;;;;;;5.38;2.30;;;;;;;29.02;nan;100438.31;5023507;28;20033;-77
2022/06/24 08:02:39;;;;;;;3.78;2.10;;;;;;;29.03;nan;100429.28;5028551;28;20037;-78
2022/06/24 08:05:05;;;;;;;3.38;2.22;;;;;;;29.06;nan;100431.75;5028359;28;20041;-78
2022/06/24 08:07:30;;;;;;;6.45;2.13;;;;;;;29.09;nan;100419.94;5027871;28;20037;-78
2022/06/24 08:09:56;;;;;;;5.28;2.45;;;;;;;29.10;nan;100400.16;5024924;28;20116;-77
2022/06/24 08:12:21;;;;;;;3.67;2.20;;;;;;;29.11;nan;100378.59;5028722;28;20025;-76
2022/06/24 08:14:46;;;;;;;6.97;2.10;;;;;;;29.12;nan;100371.41;5024131;28;20094;-77
2022/06/24 08:17:12;;;;;;;4.57;2.10;;;;;;;29.14;nan;100370.34;5028909;28;20034;-76
2022/06/24 08:19:37;;;;;;;3.03;2.00;;;;;;;29.17;nan;100394.25;5028343;28;20388;-70
2022/06/24 08:22:03;;;;;;;3.33;2.10;;;;;;;29.19;nan;100397.72;5027803;28;20468;-77
2022/06/24 08:24:28;;;;;;;5.32;2.13;;;;;;;29.20;nan;100388.69;5028348;28;20491;-76
2022/06/24 08:26:54;;;;;;;3.65;2.22;;;;;;;29.21;nan;100379.69;5028894;28;20037;-76
2022/06/24 08:29:19;;;;;;;4.80;2.30;;;;;;;29.23;nan;100384.91;5028924;28;20475;-76
2022/06/24 08:31:44;;;;;;;2.85;2.30;;;;;;;29.25;nan;100382.97;5028530;28;20117;-77
2022/06/24 08:34:10;;;;;;;3.67;2.33;;;;;;;29.25;nan;100399.94;5029051;28;20056;-76
2022/06/24 08:36:36;;;;;;;5.60;2.38;;;;;;;29.24;nan;100414.34;5028409;28;20064;-75
2022/06/24 08:39:02;;;;;;;5.50;2.30;;;;;;;29.27;nan;100419.50;5028206;28;20137;-77
2022/06/24 08:41:27;;;;;;;4.18;2.40;;;;;;;29.29;nan;100416.69;5028834;28;20047;-76
2022/06/24 08:43:54;;;;;;;4.65;2.17;;;;;;;29.30;nan;100419.28;5028129;28;20029;-77
2022/06/24 08:46:20;;;;;;;4.30;2.20;;;;;;;29.31;nan;100422.81;5028949;28;20029;-75
2022/06/24 08:48:47;;;;;;;4.57;2.28;;;;;;;29.32;nan;100424.53;5027900;28;20378;-76
2022/06/24 08:51:13;;;;;;;6.15;2.35;;;;;;;29.34;nan;100430.66;5026872;28;20021;-74
2022/06/24 08:53:39;;;;;;;4.20;2.30;;;;;;;29.34;nan;100436.91;5028241;28;20800;-75
2022/06/24 08:56:06;;;;;;;7.93;2.50;;;;;;;29.32;nan;100424.53;5028877;28;20438;-75
2022/06/24 08:58:32;;;;;;;3.88;2.30;;;;;;;29.27;nan;100430.25;5028219;28;20052;-72
2022/06/24 09:00:58;;;;;;;4.53;2.15;;;;;;;29.25;nan;100421.44;5028667;28;20029;-76
2022/06/24 09:03:23;;;;;;;4.57;2.40;;;;;;;29.27;nan;100432.06;5026451;28;20489;-73
2022/06/24 09:05:48;;;;;;;7.07;2.63;;;;;;;29.21;nan;100425.31;5026940;28;20488;-74
2022/06/24 09:08:15;;;;;;;3.95;2.38;;;;;;;29.26;nan;100425.84;5027678;28;20527;-74
2022/06/24 09:10:43;;;;;;;5.22;2.30;;;;;;;29.26;nan;100422.28;5028682;28;20589;-74
2022/06/24 09:13:19;;;;;;;8.13;2.53;;;;;;;29.27;nan;100432.06;5028476;28;20040;-71
2022/06/24 09:15:54;;;;;;;5.25;2.65;;;;;;;29.30;nan;100434.53;5027726;28;20029;-74
2022/06/24 09:18:23;;;;;;;9.68;2.30;;;;;;;29.32;nan;100430.78;5027708;28;20041;-72
2022/06/24 09:20:55;;;;;;;5.60;1.98;;;;;;;29.36;nan;100429.59;5025522;28;20033;-72
2022/06/24 09:23:20;;;;;;;3.67;2.20;;;;;;;29.38;nan;100429.50;5024497;28;20068;-73
2022/06/24 09:25:50;;;;;;;5.88;2.17;;;;;;;29.40;nan;100427.53;5031950;28;20465;-71
2022/06/24 09:28:27;;;;;;;5.25;2.47;;;;;;;29.38;nan;100433.06;5028023;28;20124;-75
2022/06/24 09:31:04;;;;;;;5.38;2.10;;;;;;;29.41;nan;100432.81;5027820;28;20068;-72
2022/06/24 09:33:39;;;;;;;4.80;2.08;;;;;;;29.44;nan;100455.91;5028388;28;20090;-72
2022/06/24 09:36:07;;;;;;;4.00;2.03;;;;;;;29.46;nan;100456.66;5028656;28;20032;-72
2022/06/24 09:38:52;;;;;;;5.53;2.30;;;;;;;29.55;nan;100452.47;5027810;28;20049;-74
2022/06/24 09:41:17;;;;;;;6.95;2.38;;;;;;;29.50;nan;100465.38;5021919;28;20060;-70
2022/06/24 09:43:43;;;;;;;5.78;2.58;;;;;;;29.44;nan;100458.59;5029341;28;20737;-73
2022/06/24 09:46:16;;;;;;;7.68;2.35;;;;;;;29.50;nan;100471.59;5010852;28;20030;-73
2022/06/24 09:48:42;;;;;;;;;;;;;;;29.51;nan;100472.47;5028426;28;20068;-68
2022/06/24 09:51:07;;;;;;;6.43;2.60;;;;;;;29.51;nan;100480.53;5028278;28;20375;-71
2022/06/24 09:53:37;;;;;;;5.22;2.30;;;;;;;29.52;nan;100475.00;5028448;28;20298;-72
2022/06/24 09:56:07;;;;;;;7.97;2.55;;;;;;;29.52;nan;100471.50;5027182;28;20364;-71
2022/06/24 09:58:34;;;;;;;10.82;2.50;;;;;;;29.60;nan;100478.03;5027518;28;20056;-72
2022/06/24 10:01:00;;;;;;;5.20;2.40;;;;;;;29.52;nan;100472.31;5026982;28;20033;-72
2022/06/24 10:03:27;;;;;;;5.78;2.50;;;;;;;29.53;nan;100489.31;5027537;28;20018;-72
2022/06/24 10:05:54;;;;;;;8.27;2.60;;;;;;;29.54;nan;100493.72;5025806;28;22140;-71
2022/06/24 10:08:24;;;;;;;4.30;2.42;;;;;;;29.51;nan;100489.44;5027777;28;20026;-71
2022/06/24 10:10:54;;;;;;;8.23;4.10;;;;;;;29.47;nan;100495.97;5030820;28;20029;-74
2022/06/24 10:13:32;;;;;;;8.02;3.90;;;;;;;29.49;nan;100499.41;5030288;28;20029;-69
2022/06/24 10:16:01;;;;;;;31.70;15.38;;;;;;;29.51;nan;100504.69;5031492;28;20033;-69
2022/06/24 10:18:34;;;;;;;48.67;22.40;;;;;;;29.49;nan;100504.78;5030768;28;20057;-70
2022/06/24 10:21:02;;;;;;;60.67;30.88;;;;;;;29.49;nan;100498.56;5032487;28;20380;-72
2022/06/24 10:23:36;;;;;;;67.32;32.63;;;;;;;29.50;nan;100494.91;5029778;28;20588;-71
2022/06/24 10:26:12;;;;;;;62.75;30.20;;;;;;;29.45;nan;100484.50;5031251;28;20018;-71
2022/06/24 10:29:04;;;;;;;55.70;29.05;;;;;;;29.44;nan;100480.09;5031026;28;20069;-71
2022/06/24 10:31:42;;;;;;;55.20;27.25;;;;;;;29.49;nan;100483.31;5030764;28;20018;-71
2022/06/24 10:34:32;;;;;;;45.72;24.83;;;;;;;29.50;nan;100490.41;5030737;28;20056;-70
2022/06/24 10:37:08;;;;;;;48.35;25.08;;;;;;;29.52;nan;100504.56;5030685;28;20112;-70
2022/06/24 10:39:43;;;;;;;48.92;24.92;;;;;;;29.53;nan;100521.53;5031291;28;20056;-70
2022/06/24 10:42:10;;;;;;;47.35;22.70;;;;;;;29.53;nan;100508.09;5031051;28;20044;-69
2022/06/24 10:44:37;;;;;;;36.85;19.42;;;;;;;29.52;nan;100507.25;5029002;28;20064;-70
2022/06/24 10:47:10;;;;;;;41.45;21.02;;;;;;;29.49;nan;100520.03;5030571;28;20041;-70
2022/06/24 10:49:50;;;;;;;40.17;19.50;;;;;;;29.54;nan;100516.06;5030468;28;20041;-70
2022/06/24 10:52:37;;;;;;;42.55;21.15;;;;;;;29.47;nan;100517.47;5030712;28;20068;-71
2022/06/24 10:55:15;;;;;;;40.63;19.80;;;;;;;29.52;nan;100527.91;5030486;28;20040;-68
2022/06/24 10:57:40;;;;;;;43.30;19.65;;;;;;;29.43;nan;100530.25;5030699;28;20415;-69
2022/06/24 11:00:17;;;;;;;39.22;20.17;;;;;;;29.42;nan;100525.00;5030716;28;20045;-70
2022/06/24 11:02:44;;;;;;;39.63;19.73;;;;;;;29.38;nan;100532.41;5028326;28;20029;-70
2022/06/24 11:05:32;;;;;;;42.67;19.48;;;;;;;29.46;nan;100536.41;5030147;28;20060;-69
2022/06/24 11:07:59;;;;;;;36.03;17.40;;;;;;;29.50;nan;100535.19;5028791;28;20047;-70
2022/06/24 11:10:27;;;;;;;36.95;17.48;;;;;;;29.55;nan;100533.91;5029252;28;20033;-72
2022/06/24 11:12:56;;;;;;;27.38;12.13;;;;;;;29.56;nan;100527.56;5029032;28;20025;-71
2022/06/24 11:15:56;;;;;;;23.77;11.68;;;;;;;29.57;nan;100526.59;5028093;28;20049;-71
2022/06/24 11:18:27;;;;;;;26.50;12.75;;;;;;;29.53;nan;100522.41;5024226;28;20044;-70
2022/06/24 11:21:01;;;;;;;25.60;12.55;;;;;;;29.55;nan;100523.16;5029061;28;20041;-70
2022/06/24 11:23:29;;;;;;;27.65;13.45;;;;;;;29.54;nan;100529.50;5030189;28;20025;-71
2022/06/24 11:26:00;;;;;;;27.88;13.23;;;;;;;29.52;nan;100528.75;5030224;28;20029;-71
2022/06/24 11:28:33;;;;;;;32.00;14.48;;;;;;;29.53;nan;100526.91;5030026;28;20037;-70
2022/06/24 11:31:24;;;;;;;32.73;13.40;;;;;;;29.51;nan;100524.34;5029495;28;20104;-70
2022/06/24 11:34:05;;;;;;;25.17;12.63;;;;;;;29.53;nan;100537.66;5028134;28;20021;-70
2022/06/24 11:36:34;;;;;;;27.13;13.23;;;;;;;29.51;nan;100520.81;5023820;28;20533;-73
2022/06/24 11:39:02;;;;;;;23.80;11.20;;;;;;;29.41;nan;100532.19;5029685;28;20492;-68
2022/06/24 11:41:35;;;;;;;26.70;11.43;;;;;;;29.40;nan;100533.16;5030448;28;20044;-67
2022/06/24 11:44:02;;;;;;;24.52;11.00;;;;;;;29.35;nan;100537.13;5029461;28;20575;-68
2022/06/24 11:46:27;;;;;;;22.05;10.40;;;;;;;29.38;nan;100542.28;5029752;28;20104;-73
2022/06/24 11:49:22;;;;;;;22.88;10.10;;;;;;;29.36;nan;100538.84;5028291;28;20124;-69
2022/06/24 11:51:48;;;;;;;21.52;11.02;;;;;;;29.50;nan;100527.16;5023687;28;20606;-69